Time;durP1;ratioP1;P1;durP2;ratioP2;P2;SDS_P1;SDS_P2;PMS_P1;PMS_P2;Temp;Humidity;BMP_temperature;BMP_pressure;BME280_temperature;BME280_humidity;BME280_pressure;Samples;Min_cycle;Max_cycle;Signal;HPM_P1;HPM_P2
2021/11/12 00:13:06;;;;;;;9.85;1.88;;;;;;;;;;4731322;29;21263;-81
2021/11/12 00:15:56;;;;;;;9.05;1.80;;;;;;;;;;4778700;28;21594;-81
2021/11/12 00:18:25;;;;;;;11.43;1.70;;;;;;;;;;4790074;28;20050;-82
2021/11/12 00:21:12;;;;;;;11.07;1.70;;;;;;;;;;4752600;28;23333;-82
2021/11/12 00:23:41;;;;;;;8.77;1.80;;;;;;;;;;4764973;28;20402;-84
2021/11/12 00:26:08;;;;;;;10.13;1.77;;;;;;;;;;4749026;28;20043;-82
2021/11/12 00:28:39;;;;;;;8.55;1.95;;;;;;;;;;4784715;28;20158;-81
2021/11/12 00:37:00;;;;;;;8.40;1.50;;;;;;;;;;4807926;28;20049;-82
2021/11/12 00:39:37;;;;;;;9.15;1.52;;;;;;;;;;4783357;28;20129;-82
2021/11/12 00:45:17;;;;;;;8.77;1.75;;;;;;;;;;4759111;28;20548;-83
2021/11/12 00:51:16;;;;;;;7.53;1.33;;;;;;;;;;4792984;28;21692;-83
2021/11/12 00:53:53;;;;;;;6.47;1.42;;;;;;;;;;4793000;28;20728;-84
2021/11/12 00:56:23;;;;;;;8.18;1.50;;;;;;;;;;4775791;28;20110;-81
2021/11/12 00:58:50;;;;;;;11.13;1.60;;;;;;;;;;4787048;28;20612;-82
2021/11/12 01:01:19;;;;;;;11.13;1.95;;;;;;;;;;4776536;28;20033;-82
2021/11/12 01:03:46;;;;;;;8.75;1.95;;;;;;;;;;4776681;28;21274;-82
2021/11/12 01:06:12;;;;;;;9.18;1.58;;;;;;;;;;4776122;28;20060;-82
2021/11/12 01:08:41;;;;;;;10.68;1.65;;;;;;;;;;4771941;28;20172;-82
2021/11/12 01:11:07;;;;;;;9.90;1.77;;;;;;;;;;4796672;28;20038;-81
2021/11/12 01:13:35;;;;;;;;;;;;;;;;;;4790382;28;20129;-81
2021/11/12 01:16:23;;;;;;;7.88;2.03;;;;;;;;;;4816934;28;19921;-83
2021/11/12 01:18:51;;;;;;;13.30;2.85;;;;;;;;;;4821108;28;20695;-81
2021/11/12 01:21:19;;;;;;;9.73;2.40;;;;;;;;;;4807827;28;21063;-80
2021/11/12 01:23:49;;;;;;;8.85;1.95;;;;;;;;;;4806033;28;20123;-81
2021/11/12 01:26:16;;;;;;;8.75;1.92;;;;;;;;;;4794297;28;20068;-81
2021/11/12 01:28:44;;;;;;;7.53;2.28;;;;;;;;;;4814798;28;20034;-83
2021/11/12 01:31:12;;;;;;;13.27;2.10;;;;;;;;;;4819737;28;20068;-81
2021/11/12 01:33:41;;;;;;;10.30;2.47;;;;;;;;;;4790695;28;20069;-82
2021/11/12 01:36:32;;;;;;;13.07;3.30;;;;;;;;;;4834697;28;20041;-82
2021/11/12 01:39:04;;;;;;;16.50;4.78;;;;;;;;;;4815571;28;20134;-83
2021/11/12 01:41:32;;;;;;;16.02;4.47;;;;;;;;;;4815315;28;20117;-81
2021/11/12 01:44:03;;;;;;;15.80;4.78;;;;;;;;;;4828217;28;21451;-81
2021/11/12 01:46:54;;;;;;;12.65;3.10;;;;;;;;;;4812044;28;20072;-81
2021/11/12 01:52:11;;;;;;;13.05;2.15;;;;;;;;;;4818362;28;20079;-80
2021/11/12 01:54:49;;;;;;;9.80;1.80;;;;;;;;;;4819318;28;21428;-80
2021/11/12 01:57:32;;;;;;;10.18;1.90;;;;;;;;;;4811728;28;20166;-81
2021/11/12 01:59:58;;;;;;;9.60;2.00;;;;;;;;;;4798373;28;20068;-81
2021/11/12 02:02:27;;;;;;;8.80;1.90;;;;;;;;;;4797313;28;20129;-81
2021/11/12 02:04:54;;;;;;;11.13;2.45;;;;;;;;;;4788555;28;20046;-82
2021/11/12 02:07:24;;;;;;;11.32;2.00;;;;;;;;;;4788045;28;20115;-81
2021/11/12 02:09:53;;;;;;;11.30;2.38;;;;;;;;;;4802405;28;20174;-81
2021/11/12 02:12:27;;;;;;;9.55;1.95;;;;;;;;;;4799249;28;20128;-80
2021/11/12 02:14:56;;;;;;;11.55;2.20;;;;;;;;;;4789371;28;21306;-82
2021/11/12 02:17:31;;;;;;;12.63;2.45;;;;;;;;;;4813009;28;20539;-81
2021/11/12 02:20:21;;;;;;;10.20;2.20;;;;;;;;;;4813133;28;20041;-82
2021/11/12 02:22:53;;;;;;;11.18;1.90;;;;;;;;;;4801424;28;20046;-83
2021/11/12 02:25:38;;;;;;;13.27;2.30;;;;;;;;;;4794085;28;20034;-81
2021/11/12 02:28:15;;;;;;;8.80;1.90;;;;;;;;;;4776887;28;21264;-83
2021/11/12 02:30:47;;;;;;;10.50;2.05;;;;;;;;;;4781441;28;20050;-81
2021/11/12 02:33:21;;;;;;;9.82;1.98;;;;;;;;;;4814618;28;20799;-82
2021/11/12 02:39:04;;;;;;;9.88;2.25;;;;;;;;;;4796207;28;21408;-82
2021/11/12 02:41:30;;;;;;;10.82;1.92;;;;;;;;;;4807331;28;20038;-81
2021/11/12 02:44:09;;;;;;;9.20;1.67;;;;;;;;;;4809534;28;20033;-82
2021/11/12 02:46:36;;;;;;;8.43;1.70;;;;;;;;;;4805588;28;22102;-81
2021/11/12 02:49:08;;;;;;;11.25;2.03;;;;;;;;;;4801709;28;20038;-81
2021/11/12 02:51:37;;;;;;;8.27;1.48;;;;;;;;;;4786790;28;22202;-83
2021/11/12 02:54:09;;;;;;;8.35;1.70;;;;;;;;;;4808148;28;21997;-81
2021/11/12 02:56:37;;;;;;;10.38;1.75;;;;;;;;;;4806333;28;20976;-83
2021/11/12 02:59:27;;;;;;;13.15;2.10;;;;;;;;;;4811112;28;21286;-83
2021/11/12 03:01:56;;;;;;;10.15;1.67;;;;;;;;;;4800295;28;20054;-81
2021/11/12 03:04:23;;;;;;;9.27;1.60;;;;;;;;;;4821700;28;21012;-81
2021/11/12 03:06:50;;;;;;;8.82;1.85;;;;;;;;;;4826384;28;20038;-81
2021/11/12 03:09:18;;;;;;;9.00;1.67;;;;;;;;;;4809947;28;20034;-80
2021/11/12 03:11:46;;;;;;;10.43;1.90;;;;;;;;;;4811907;28;20073;-81
2021/11/12 03:14:14;;;;;;;11.48;1.90;;;;;;;;;;4800507;28;20046;-81
2021/11/12 03:16:43;;;;;;;13.38;2.10;;;;;;;;;;4801669;28;20038;-82
2021/11/12 03:19:13;;;;;;;11.23;1.90;;;;;;;;;;4801660;28;20152;-81
2021/11/12 03:21:45;;;;;;;9.77;2.13;;;;;;;;;;4794750;28;20079;-81
2021/11/12 03:24:20;;;;;;;8.73;2.20;;;;;;;;;;4811738;28;20032;-83
2021/11/12 03:27:04;;;;;;;10.98;2.28;;;;;;;;;;4797686;28;21499;-81
2021/11/12 03:49:57;;;;;;;11.05;1.90;;;;;;;;;;4825747;28;20879;-81
2021/11/12 04:00:39;;;;;;;13.23;2.50;;;;;;;;;;4795871;28;21628;-84
2021/11/12 04:03:13;;;;;;;12.50;2.05;;;;;;;;;;4794657;28;20112;-81
2021/11/12 04:06:17;;;;;;;10.80;2.40;;;;;;;;;;4794304;28;20657;-81
2021/11/12 04:17:23;;;;;;;11.20;2.25;;;;;;;;;;4802054;28;20125;-81
2021/11/12 04:20:20;;;;;;;12.60;2.22;;;;;;;;;;4782440;28;21113;-81
2021/11/12 05:10:11;;;;;;;11.90;2.25;;;;;;;;;;4741074;28;22390;-81
2021/11/12 05:33:29;;;;;;;8.75;1.95;;;;;;;;;;4733851;28;20102;-82
2021/11/12 05:56:55;;;;;;;10.52;2.80;;;;;;;;;;4792456;28;20145;-82
2021/11/12 05:59:29;;;;;;;10.70;2.20;;;;;;;;;;4798946;28;20171;-84
2021/11/12 06:01:56;;;;;;;10.75;2.25;;;;;;;;;;4823079;28;20179;-84
2021/11/12 06:04:25;;;;;;;8.13;2.35;;;;;;;;;;4804609;28;21335;-83
2021/11/12 06:06:53;;;;;;;11.48;2.00;;;;;;;;;;4797541;28;20044;-84
2021/11/12 06:09:22;;;;;;;11.27;2.10;;;;;;;;;;4766866;28;22662;-81
2021/11/12 06:11:52;;;;;;;13.20;2.72;;;;;;;;;;4793174;28;20208;-82
2021/11/12 06:14:21;;;;;;;8.85;1.83;;;;;;;;;;4802758;28;21106;-82
2021/11/12 06:16:49;;;;;;;8.68;1.80;;;;;;;;;;4824230;28;20041;-82
2021/11/12 06:19:16;;;;;;;8.45;2.00;;;;;;;;;;4809812;28;20144;-82
2021/11/12 06:21:46;;;;;;;7.75;2.00;;;;;;;;;;4805684;28;20051;-82
2021/11/12 06:24:13;;;;;;;9.23;1.88;;;;;;;;;;4823993;28;20101;-82
2021/11/12 06:26:40;;;;;;;5.38;1.50;;;;;;;;;;4794422;28;20166;-82
2021/11/12 06:29:09;;;;;;;8.45;1.83;;;;;;;;;;4795487;28;20034;-82
2021/11/12 06:31:37;;;;;;;9.75;2.55;;;;;;;;;;4781863;28;20042;-82
2021/11/12 06:34:06;;;;;;;7.93;2.10;;;;;;;;;;4787545;28;20124;-81
2021/11/12 06:36:33;;;;;;;7.50;2.20;;;;;;;;;;4802318;28;20042;-81
2021/11/12 06:39:03;;;;;;;10.35;2.60;;;;;;;;;;4785687;28;20152;-83
2021/11/12 06:41:53;;;;;;;14.77;2.30;;;;;;;;;;4806577;28;20140;-82
2021/11/12 06:50:12;;;;;;;9.02;2.78;;;;;;;;;;4823425;28;20047;-84
2021/11/12 06:52:39;;;;;;;13.48;3.25;;;;;;;;;;4829107;28;20419;-84
2021/11/12 06:55:09;;;;;;;8.18;2.60;;;;;;;;;;4827100;28;20115;-83
2021/11/12 06:57:37;;;;;;;9.65;3.05;;;;;;;;;;4822016;28;20044;-82
2021/11/12 07:00:07;;;;;;;12.02;2.78;;;;;;;;;;4812175;28;20653;-82
2021/11/12 07:02:38;;;;;;;8.85;2.90;;;;;;;;;;4818492;28;20060;-82
2021/11/12 07:05:06;;;;;;;10.90;2.70;;;;;;;;;;4806309;28;20041;-82
2021/11/12 07:07:33;;;;;;;10.15;3.00;;;;;;;;;;4799747;28;20037;-82
2021/11/12 07:10:00;;;;;;;9.15;2.80;;;;;;;;;;4795106;28;20034;-81
2021/11/12 07:12:27;;;;;;;10.82;2.67;;;;;;;;;;4781360;28;20807;-81
2021/11/12 07:14:54;;;;;;;;;;;;;;;;;;4791265;28;20615;-82
2021/11/12 07:17:21;;;;;;;;;;;;;;;;;;4807904;28;21906;-81
2021/11/12 07:19:49;;;;;;;;;;;;;;;;;;4826867;28;20003;-81
2021/11/12 07:22:16;;;;;;;11.75;2.17;;;;;;;;;;4785593;28;19925;-81
2021/11/12 07:24:43;;;;;;;10.30;2.60;;;;;;;;;;4767399;28;20084;-82
2021/11/12 07:27:10;;;;;;;10.60;3.72;;;;;;;;;;4779502;28;20034;-83
2021/11/12 07:29:43;;;;;;;10.88;3.10;;;;;;;;;;4774583;28;20034;-84
2021/11/12 07:32:12;;;;;;;11.13;2.92;;;;;;;;;;4777175;28;22215;-83
2021/11/12 07:34:41;;;;;;;11.20;3.00;;;;;;;;;;4777369;28;20728;-82
2021/11/12 07:37:12;;;;;;;10.43;3.10;;;;;;;;;;4802399;28;20116;-84
2021/11/12 07:42:26;;;;;;;9.93;2.30;;;;;;;;;;4792207;28;20054;-82
2021/11/12 07:47:39;;;;;;;8.32;2.05;;;;;;;;;;4785716;28;20609;-83
2021/11/12 07:50:08;;;;;;;8.75;2.10;;;;;;;;;;4804361;28;21264;-82
2021/11/12 07:52:38;;;;;;;9.35;2.72;;;;;;;;;;4779311;28;20567;-82
2021/11/12 07:55:07;;;;;;;10.25;2.30;;;;;;;;;;4778634;28;20598;-83
2021/11/12 07:57:35;;;;;;;7.93;2.20;;;;;;;;;;4749514;28;20981;-83
2021/11/12 08:00:02;;;;;;;8.90;2.25;;;;;;;;;;4791152;28;20042;-82
2021/11/12 08:02:28;;;;;;;8.35;2.35;;;;;;;;;;4793140;28;20179;-83
2021/11/12 08:05:00;;;;;;;;;;;;;;;;;;4778460;28;20043;-85
2021/11/12 08:07:31;;;;;;;8.07;2.15;;;;;;;;;;4789157;28;19929;-84
2021/11/12 08:10:00;;;;;;;10.35;2.15;;;;;;;;;;4769846;28;21028;-84
2021/11/12 08:12:35;;;;;;;7.32;1.83;;;;;;;;;;4786977;28;20153;-82
2021/11/12 08:17:41;;;;;;;7.80;2.00;;;;;;;;;;4794956;28;20052;-83
2021/11/12 08:20:19;;;;;;;6.93;1.70;;;;;;;;;;4793581;28;20037;-83
2021/11/12 08:23:20;;;;;;;10.00;2.00;;;;;;;;;;4809649;28;20038;-82
2021/11/12 08:26:10;;;;;;;7.93;1.60;;;;;;;;;;4810223;28;20046;-83
2021/11/12 08:34:05;;;;;;;7.78;2.10;;;;;;;;;;4804223;28;20076;-85
2021/11/12 08:41:59;;;;;;;9.23;2.67;;;;;;;;;;4819746;28;20041;-85
2021/11/12 08:44:39;;;;;;;11.85;3.17;;;;;;;;;;4815451;28;20131;-86
2021/11/12 08:47:16;;;;;;;11.05;3.03;;;;;;;;;;4808368;28;20057;-87
2021/11/12 08:49:45;;;;;;;9.52;3.20;;;;;;;;;;4826921;28;21766;-85
2021/11/12 08:52:19;;;;;;;11.35;3.70;;;;;;;;;;4811234;28;20868;-85
2021/11/12 08:54:48;;;;;;;11.93;4.05;;;;;;;;;;4815595;28;20071;-85
2021/11/12 08:57:17;;;;;;;9.25;3.33;;;;;;;;;;4819653;28;20037;-85
2021/11/12 08:59:46;;;;;;;11.38;3.85;;;;;;;;;;4800844;28;20045;-84
2021/11/12 09:02:19;;;;;;;11.88;3.70;;;;;;;;;;4808002;28;20053;-83
2021/11/12 09:04:46;;;;;;;12.52;4.20;;;;;;;;;;4803964;28;20746;-83
2021/11/12 09:07:15;;;;;;;11.65;4.18;;;;;;;;;;4805225;28;20057;-81
2021/11/12 09:09:44;;;;;;;13.45;4.10;;;;;;;;;;4787770;28;20034;-82
2021/11/12 09:12:13;;;;;;;14.13;4.68;;;;;;;;;;4798472;28;20037;-83
2021/11/12 09:14:47;;;;;;;13.57;5.18;;;;;;;;;;4815162;28;20044;-83
2021/11/12 09:17:16;;;;;;;13.85;5.10;;;;;;;;;;4797286;28;20047;-82
2021/11/12 09:19:51;;;;;;;12.93;4.70;;;;;;;;;;4792480;28;20075;-82
2021/11/12 09:22:21;;;;;;;11.77;4.70;;;;;;;;;;4792234;28;20045;-83
2021/11/12 09:24:50;;;;;;;11.75;4.50;;;;;;;;;;4797985;28;20134;-83
2021/11/12 09:27:17;;;;;;;11.18;4.30;;;;;;;;;;4813540;28;20167;-85
2021/11/12 09:29:44;;;;;;;9.48;4.07;;;;;;;;;;4799336;28;20045;-85
2021/11/12 09:32:12;;;;;;;9.00;3.60;;;;;;;;;;4810075;28;20045;-84
2021/11/12 09:34:39;;;;;;;11.60;4.15;;;;;;;;;;4815981;28;20202;-84
2021/11/12 09:37:13;;;;;;;12.10;4.40;;;;;;;;;;4823000;28;21024;-87
2021/11/12 09:39:42;;;;;;;13.07;4.15;;;;;;;;;;4830762;28;21609;-84
2021/11/12 09:42:09;;;;;;;10.27;3.97;;;;;;;;;;4833578;28;20090;-84
2021/11/12 09:44:38;;;;;;;11.88;4.60;;;;;;;;;;4839363;28;20151;-83
2021/11/12 09:47:11;;;;;;;10.70;3.92;;;;;;;;;;4823932;28;20033;-83
2021/11/12 09:49:40;;;;;;;12.27;5.07;;;;;;;;;;4811779;28;21228;-84
2021/11/12 09:52:11;;;;;;;14.32;4.63;;;;;;;;;;4804246;28;20034;-82
2021/11/12 09:54:39;;;;;;;14.32;5.28;;;;;;;;;;4797746;28;20042;-85
2021/11/12 09:57:09;;;;;;;13.05;5.63;;;;;;;;;;4812200;28;20751;-84
2021/11/12 09:59:37;;;;;;;13.85;5.22;;;;;;;;;;4799010;28;20072;-84
2021/11/12 10:02:05;;;;;;;13.20;4.60;;;;;;;;;;4813903;28;20048;-82
2021/11/12 10:04:32;;;;;;;15.73;4.50;;;;;;;;;;4816230;28;20793;-84
2021/11/12 10:07:00;;;;;;;12.98;4.55;;;;;;;;;;4816702;28;20188;-82
2021/11/12 10:09:29;;;;;;;14.38;4.75;;;;;;;;;;4808561;28;20171;-82
2021/11/12 10:11:57;;;;;;;10.45;4.10;;;;;;;;;;4813703;28;22329;-82
2021/11/12 10:17:31;;;;;;;13.02;4.75;;;;;;;;;;4814055;28;20048;-83
2021/11/12 10:20:00;;;;;;;12.73;4.70;;;;;;;;;;4807266;28;20755;-82
2021/11/12 10:22:33;;;;;;;12.70;4.45;;;;;;;;;;4800706;28;20087;-85
2021/11/12 10:25:03;;;;;;;13.43;3.92;;;;;;;;;;4799664;28;22882;-84
2021/11/12 10:27:33;;;;;;;15.07;4.43;;;;;;;;;;4800470;28;20037;-85
2021/11/12 10:30:01;;;;;;;14.80;4.57;;;;;;;;;;4794775;28;20026;-82
2021/11/12 10:32:33;;;;;;;13.10;3.97;;;;;;;;;;4804373;28;20060;-84
2021/11/12 10:35:03;;;;;;;14.45;4.22;;;;;;;;;;4806465;28;20051;-82
2021/11/12 10:37:35;;;;;;;13.93;3.97;;;;;;;;;;4804389;28;20048;-83
2021/11/12 10:40:09;;;;;;;10.30;3.75;;;;;;;;;;4816137;28;22807;-83
2021/11/12 10:42:38;;;;;;;12.02;4.38;;;;;;;;;;4818859;28;20800;-84
2021/11/12 10:45:16;;;;;;;10.57;3.60;;;;;;;;;;4844476;28;20037;-83
2021/11/12 10:47:55;;;;;;;14.32;4.03;;;;;;;;;;4853896;28;20033;-82
2021/11/12 10:50:24;;;;;;;15.20;4.60;;;;;;;;;;4838596;28;21507;-83
2021/11/12 10:52:56;;;;;;;16.08;4.50;;;;;;;;;;4806451;28;20164;-83
2021/11/12 10:55:27;;;;;;;17.27;4.97;;;;;;;;;;4815654;28;20046;-84
2021/11/12 10:57:59;;;;;;;13.82;4.97;;;;;;;;;;4817599;28;20037;-82
2021/11/12 11:00:25;;;;;;;16.08;5.00;;;;;;;;;;4837399;28;20071;-82
2021/11/12 11:03:06;;;;;;;13.18;4.60;;;;;;;;;;4839844;28;20108;-82
2021/11/12 11:05:41;;;;;;;13.20;4.93;;;;;;;;;;4827747;28;20141;-83
2021/11/12 11:08:28;;;;;;;17.05;5.75;;;;;;;;;;4844294;28;20139;-83
2021/11/12 11:11:02;;;;;;;13.80;4.90;;;;;;;;;;4808480;28;20037;-85
2021/11/12 11:13:37;;;;;;;15.75;4.97;;;;;;;;;;4807229;28;20047;-83
2021/11/12 11:16:17;;;;;;;15.85;5.03;;;;;;;;;;4824363;28;20200;-82
2021/11/12 11:18:54;;;;;;;13.55;4.50;;;;;;;;;;4822901;28;21607;-83
2021/11/12 11:21:27;;;;;;;10.77;3.90;;;;;;;;;;4833295;28;20029;-83
2021/11/12 11:24:00;;;;;;;14.10;3.83;;;;;;;;;;4809316;28;20111;-83
2021/11/12 11:26:39;;;;;;;12.65;4.45;;;;;;;;;;4805663;28;21002;-83
2021/11/12 11:29:08;;;;;;;13.95;4.72;;;;;;;;;;4814066;28;20669;-84
2021/11/12 11:31:34;;;;;;;14.85;5.40;;;;;;;;;;4813908;28;21547;-83
2021/11/12 11:34:03;;;;;;;14.80;5.25;;;;;;;;;;4822296;28;20034;-83
2021/11/12 11:36:36;;;;;;;18.00;5.65;;;;;;;;;;4825665;28;20080;-83
2021/11/12 11:39:15;;;;;;;15.30;4.82;;;;;;;;;;4813478;28;20061;-84
2021/11/12 11:41:44;;;;;;;14.85;4.47;;;;;;;;;;4809538;28;20030;-85
2021/11/12 11:44:19;;;;;;;16.00;4.55;;;;;;;;;;4801034;28;21087;-84
2021/11/12 11:46:50;;;;;;;13.52;4.13;;;;;;;;;;4810163;28;20614;-83
2021/11/12 11:49:18;;;;;;;14.07;4.18;;;;;;;;;;4822381;28;20144;-85
2021/11/12 11:51:53;;;;;;;15.77;4.93;;;;;;;;;;4817532;28;20238;-83
2021/11/12 11:54:22;;;;;;;16.02;4.97;;;;;;;;;;4845098;28;20041;-85
2021/11/12 11:56:54;;;;;;;16.95;5.90;;;;;;;;;;4814661;28;20026;-83
2021/11/12 11:59:25;;;;;;;17.25;6.07;;;;;;;;;;4807582;28;20049;-84
2021/11/12 12:01:54;;;;;;;17.05;6.13;;;;;;;;;;4826737;28;20861;-83
2021/11/12 12:04:54;;;;;;;18.20;5.93;;;;;;;;;;4828629;28;20041;-85
2021/11/12 12:07:25;;;;;;;18.63;5.38;;;;;;;;;;4788605;28;20390;-83
2021/11/12 12:10:12;;;;;;;18.13;6.00;;;;;;;;;;4783304;28;21207;-83
2021/11/12 12:12:41;;;;;;;17.23;5.82;;;;;;;;;;4777382;28;20042;-82
2021/11/12 12:15:12;;;;;;;18.48;5.95;;;;;;;;;;4790689;28;20075;-83
2021/11/12 12:17:43;;;;;;;20.52;6.18;;;;;;;;;;4810113;28;20177;-83
2021/11/12 12:40:11;;;;;;;13.52;4.43;;;;;;;;;;4778259;28;20053;-83
2021/11/12 13:22:40;;;;;;;12.10;4.03;;;;;;;;;;4812664;28;20037;-83
2021/11/12 13:25:07;;;;;;;12.25;3.88;;;;;;;;;;4802196;28;20080;-83
2021/11/12 13:27:34;;;;;;;13.38;4.60;;;;;;;;;;4810689;28;20177;-85
2021/11/12 13:30:02;;;;;;;10.00;3.90;;;;;;;;;;4819362;28;20888;-85
2021/11/12 13:32:29;;;;;;;11.18;3.53;;;;;;;;;;4826442;28;20054;-84
2021/11/12 13:34:57;;;;;;;11.82;3.95;;;;;;;;;;4829799;28;20055;-84
2021/11/12 13:37:27;;;;;;;14.20;4.07;;;;;;;;;;4833498;28;20056;-82
2021/11/12 13:40:15;;;;;;;10.85;3.85;;;;;;;;;;4830309;28;20037;-83
2021/11/12 13:42:43;;;;;;;14.52;4.80;;;;;;;;;;4811104;28;20107;-83
2021/11/12 13:45:21;;;;;;;14.45;5.10;;;;;;;;;;4822606;28;20033;-82
2021/11/12 13:47:59;;;;;;;18.88;5.25;;;;;;;;;;4797206;28;20112;-82
2021/11/12 13:50:26;;;;;;;14.55;4.60;;;;;;;;;;4822668;28;20037;-81
2021/11/12 13:52:56;;;;;;;15.95;5.22;;;;;;;;;;4822436;28;20257;-80
2021/11/12 13:55:36;;;;;;;18.13;5.70;;;;;;;;;;4813570;28;20272;-80
2021/11/12 13:58:13;;;;;;;18.40;5.50;;;;;;;;;;4802928;28;20152;-78
2021/11/12 14:00:39;;;;;;;;;;;;;;;;;;4795990;28;20053;-80
2021/11/12 14:03:18;;;;;;;13.35;4.72;;;;;;;;;;4799737;28;21151;-80
2021/11/12 14:05:57;;;;;;;15.82;5.00;;;;;;;;;;4820047;28;20076;-79
2021/11/12 14:08:33;;;;;;;14.95;5.15;;;;;;;;;;4830983;28;20631;-82
2021/11/12 14:11:02;;;;;;;13.77;4.35;;;;;;;;;;4817304;28;22971;-81
2021/11/12 14:13:41;;;;;;;16.60;4.18;;;;;;;;;;4829870;28;20072;-81
2021/11/12 14:18:53;;;;;;;15.15;3.92;;;;;;;;;;4825130;28;20033;-80
2021/11/12 14:21:27;;;;;;;15.10;3.08;;;;;;;;;;4834503;28;20029;-82
2021/11/12 14:27:03;;;;;;;10.63;2.50;;;;;;;;;;4813172;28;20041;-83
2021/11/12 14:29:59;;;;;;;10.50;2.63;;;;;;;;;;4859852;28;20191;-81
2021/11/12 14:33:10;;;;;;;9.23;2.35;;;;;;;;;;4867379;28;20224;-81
2021/11/12 14:35:58;;;;;;;7.45;1.80;;;;;;;;;;4844704;28;20040;-80
2021/11/12 14:38:50;;;;;;;7.78;1.80;;;;;;;;;;4854402;28;20045;-82
2021/11/12 14:41:32;;;;;;;7.45;1.67;;;;;;;;;;4831949;28;20976;-84
2021/11/12 14:49:34;;;;;;;8.70;2.13;;;;;;;;;;4823786;28;20397;-81
2021/11/12 14:52:16;;;;;;;7.97;2.60;;;;;;;;;;4815353;28;20763;-81
2021/11/12 14:54:46;;;;;;;7.30;2.30;;;;;;;;;;4820033;28;20042;-81
2021/11/12 14:57:40;;;;;;;8.00;1.80;;;;;;;;;;4800533;28;20046;-81
2021/11/12 15:00:15;;;;;;;8.18;2.55;;;;;;;;;;4845366;28;20717;-81
2021/11/12 15:02:41;;;;;;;10.68;3.15;;;;;;;;;;4807832;28;20101;-81
2021/11/12 15:05:15;;;;;;;11.27;3.03;;;;;;;;;;4812329;28;20125;-82
2021/11/12 15:07:50;;;;;;;10.13;3.00;;;;;;;;;;4814708;28;20037;-81
2021/11/12 15:10:28;;;;;;;11.02;3.75;;;;;;;;;;4805611;28;20042;-81
2021/11/12 15:12:57;;;;;;;16.77;7.40;;;;;;;;;;4797545;28;22413;-80
2021/11/12 15:15:30;;;;;;;15.80;6.00;;;;;;;;;;4797031;28;20034;-81
2021/11/12 15:18:02;;;;;;;16.67;4.68;;;;;;;;;;4815752;28;20132;-80
2021/11/12 15:20:33;;;;;;;18.63;5.72;;;;;;;;;;4808770;28;20029;-81
2021/11/12 15:31:04;;;;;;;21.13;5.95;;;;;;;;;;4824483;28;20042;-81
2021/11/12 15:33:38;;;;;;;18.20;5.55;;;;;;;;;;4814473;28;20133;-81
2021/11/12 15:36:11;;;;;;;18.75;5.47;;;;;;;;;;4841298;28;20148;-81
2021/11/12 15:39:05;;;;;;;22.00;5.80;;;;;;;;;;4826157;28;21365;-81
2021/11/12 15:44:22;;;;;;;20.60;5.18;;;;;;;;;;4808548;28;21524;-81
2021/11/12 15:46:52;;;;;;;22.52;5.75;;;;;;;;;;4807392;28;20500;-80
2021/11/12 15:49:24;;;;;;;19.45;4.97;;;;;;;;;;4807104;28;20042;-80
2021/11/12 15:52:00;;;;;;;18.08;4.75;;;;;;;;;;4807320;28;20045;-80
2021/11/12 15:54:36;;;;;;;21.48;4.85;;;;;;;;;;4829762;28;20042;-82
2021/11/12 15:57:41;;;;;;;19.40;4.93;;;;;;;;;;4833411;28;20041;-81
2021/11/12 16:02:53;;;;;;;19.08;4.97;;;;;;;;;;4822778;28;20041;-80
2021/11/12 16:05:50;;;;;;;19.85;4.55;;;;;;;;;;4824955;28;20780;-81
2021/11/12 16:13:45;;;;;;;20.42;4.10;;;;;;;;;;4823855;28;19921;-81
2021/11/12 16:27:23;;;;;;;16.60;4.03;;;;;;;;;;4816921;28;20756;-83
2021/11/12 16:29:54;;;;;;;18.67;3.65;;;;;;;;;;4828501;28;20057;-81
2021/11/12 16:32:35;;;;;;;16.77;4.88;;;;;;;;;;4840450;28;20160;-81
2021/11/12 16:35:08;;;;;;;15.85;3.60;;;;;;;;;;4838975;28;20053;-81
2021/11/12 16:37:35;;;;;;;17.30;3.80;;;;;;;;;;4849103;28;20034;-81
2021/11/12 16:48:14;;;;;;;11.02;2.08;;;;;;;;;;4828860;28;20056;-81
2021/11/12 16:50:50;;;;;;;11.07;1.85;;;;;;;;;;4856170;28;20141;-79
2021/11/12 16:53:34;;;;;;;11.38;2.13;;;;;;;;;;4854730;28;20038;-78
2021/11/12 17:01:40;;;;;;;9.00;1.50;;;;;;;;;;4833257;28;20423;-81
2021/11/12 17:04:28;;;;;;;9.10;1.60;;;;;;;;;;4849293;28;20081;-82
2021/11/12 17:07:06;;;;;;;7.55;1.50;;;;;;;;;;4833700;28;20049;-83
2021/11/12 17:15:21;;;;;;;11.18;2.85;;;;;;;;;;4849131;28;20118;-82
2021/11/12 17:48:08;;;;;;;18.83;4.65;;;;;;;;;;4817741;28;20100;-82
2021/11/12 17:50:58;;;;;;;20.17;3.72;;;;;;;;;;4831164;28;20106;-81
2021/11/12 18:04:43;;;;;;;;;;;;;;;;;;4812540;28;20167;-80
2021/11/12 18:07:27;;;;;;;19.58;3.38;;;;;;;;;;4804220;28;20476;-80
2021/11/12 18:10:27;;;;;;;18.23;3.47;;;;;;;;;;4812641;28;20052;-81
2021/11/12 18:13:22;;;;;;;15.77;4.07;;;;;;;;;;4807801;28;20997;-82
2021/11/12 18:21:39;;;;;;;16.08;2.70;;;;;;;;;;4815615;28;20068;-81
2021/11/12 21:46:20;;;;;;;14.07;3.00;;;;;;;;;;5002923;28;20389;-85
2021/11/12 21:48:57;;;;;;;11.07;2.63;;;;;;;;;;4994491;28;20033;-85
2021/11/12 21:51:29;;;;;;;13.75;3.30;;;;;;;;;;4995349;28;20037;-84
2021/11/12 21:54:01;;;;;;;17.95;6.05;;;;;;;;;;5008650;28;20052;-85
2021/11/12 21:56:33;;;;;;;26.85;9.55;;;;;;;;;;4993872;28;20095;-85
2021/11/12 21:59:02;;;;;;;25.88;8.40;;;;;;;;;;4983913;28;21011;-85
2021/11/12 22:01:29;;;;;;;19.35;6.63;;;;;;;;;;4988688;28;20028;-85
2021/11/12 22:03:56;;;;;;;;;;;;;;;;;;4988287;28;20532;-85
2021/11/12 22:06:25;;;;;;;15.93;5.22;;;;;;;;;;4987916;28;20039;-86
2021/11/12 22:08:53;;;;;;;21.83;6.15;;;;;;;;;;4988291;28;20076;-86
2021/11/12 22:11:20;;;;;;;16.27;5.40;;;;;;;;;;4991211;28;20165;-85
2021/11/12 22:13:48;;;;;;;16.98;4.60;;;;;;;;;;4985864;28;20061;-86
2021/11/12 22:16:40;;;;;;;18.58;5.20;;;;;;;;;;4978669;28;21152;-87
2021/11/12 22:19:36;;;;;;;19.10;5.03;;;;;;;;;;4854142;28;20038;-85
2021/11/12 22:22:23;;;;;;;20.92;4.85;;;;;;;;;;4858643;28;20137;-85
2021/11/12 22:25:05;;;;;;;21.10;4.88;;;;;;;;;;4844569;28;20185;-86
2021/11/12 22:27:36;;;;;;;22.65;6.55;;;;;;;;;;4822707;28;20050;-86
2021/11/12 22:30:06;;;;;;;30.92;11.52;;;;;;;;;;4840810;28;20027;-84
2021/11/12 22:32:42;;;;;;;24.80;9.52;;;;;;;;;;4837804;28;20051;-86
2021/11/12 22:35:17;;;;;;;31.60;10.75;;;;;;;;;;4836117;28;20118;-85
2021/11/12 22:37:58;;;;;;;25.30;7.72;;;;;;;;;;4806798;28;20050;-85
2021/11/12 22:40:35;;;;;;;19.02;5.15;;;;;;;;;;4825457;28;20073;-85
2021/11/12 22:43:16;;;;;;;18.90;4.38;;;;;;;;;;4805312;28;21485;-85
2021/11/12 22:49:11;;;;;;;16.80;4.00;;;;;;;;;;4761318;29;21603;-86
2021/11/12 22:51:41;;;;;;;15.48;3.42;;;;;;;;;;4763841;29;20036;-86
2021/11/12 22:54:15;;;;;;;15.25;3.53;;;;;;;;;;4767829;29;20190;-85
2021/11/12 22:56:45;;;;;;;14.75;3.60;;;;;;;;;;4763011;29;20139;-85
2021/11/12 22:59:19;;;;;;;15.05;4.15;;;;;;;;;;4778971;29;20055;-84
2021/11/12 23:04:50;;;;;;;15.13;3.63;;;;;;;;;;4770781;29;20147;-85
2021/11/12 23:07:22;;;;;;;15.35;4.10;;;;;;;;;;4782334;29;20062;-84
2021/11/12 23:10:32;;;;;;;18.02;3.90;;;;;;;;;;4789916;29;20271;-85
2021/11/12 23:13:12;;;;;;;16.90;4.53;;;;;;;;;;4773146;29;20458;-86
2021/11/12 23:18:48;;;;;;;20.05;4.20;;;;;;;;;;4778675;29;20202;-86
2021/11/12 23:21:16;;;;;;;16.60;4.38;;;;;;;;;;4811009;29;20044;-85
2021/11/12 23:24:10;;;;;;;14.23;3.03;;;;;;;;;;4794017;29;20772;-85
2021/11/12 23:26:59;;;;;;;12.02;3.28;;;;;;;;;;4750359;29;20182;-88
2021/11/12 23:33:02;;;;;;;13.20;2.58;;;;;;;;;;4747691;29;20052;-85
2021/11/12 23:35:54;;;;;;;;;;;;;;;;;;;;;
2021/11/12 23:38:41;;;;;;;8.07;2.22;;;;;;;;;;4740429;29;20041;-85
2021/11/12 23:41:10;;;;;;;9.37;2.40;;;;;;;;;;4735001;29;20045;-85
2021/11/12 23:43:39;;;;;;;8.73;2.17;;;;;;;;;;4725298;29;20302;-85
2021/11/12 23:46:13;;;;;;;8.85;2.60;;;;;;;;;;4731944;29;20037;-85
2021/11/12 23:49:01;;;;;;;8.68;2.65;;;;;;;;;;4728105;29;21297;-85
2021/11/12 23:51:31;;;;;;;11.68;2.80;;;;;;;;;;4751612;29;20052;-86
2021/11/12 23:54:01;;;;;;;10.23;2.63;;;;;;;;;;4753435;29;20049;-86
2021/11/12 23:56:31;;;;;;;9.70;2.80;;;;;;;;;;4737043;29;20045;-86
2021/11/12 23:58:59;;;;;;;11.00;2.67;;;;;;;;;;4738671;29;20049;-84
